createdAt,value
2016-06-17T00:00:50.338Z,0
2016-06-17T00:01:49.686Z,0
2016-06-17T00:02:48.986Z,0
2016-06-17T00:03:49.911Z,0
2016-06-17T00:04:49.321Z,0
2016-06-17T00:05:49.544Z,0
2016-06-17T00:07:03.581Z,0
2016-06-17T00:07:49.565Z,0
2016-06-17T00:08:49.054Z,0
2016-06-17T00:09:49.947Z,0
2016-06-17T00:10:49.545Z,0
2016-06-17T00:11:49.767Z,0
2016-06-17T00:12:49.552Z,0
2016-06-17T00:14:49.417Z,0
2016-06-17T00:15:49.437Z,0
2016-06-17T00:16:49.457Z,0
2016-06-17T00:17:49.444Z,0
2016-06-17T00:18:49.853Z,0
2016-06-17T00:20:49.673Z,0
2016-06-17T00:21:49.708Z,0
2016-06-17T00:22:50.086Z,0
2016-06-17T00:23:50.074Z,0
2016-06-17T00:24:49.859Z,0
2016-06-17T00:25:49.691Z,0
2016-06-17T00:26:49.694Z,0
2016-06-17T00:27:50.104Z,0
2016-06-17T00:28:49.529Z,0
2016-06-17T00:29:49.704Z,0
2016-06-17T00:30:49.645Z,0
2016-06-17T00:31:50.133Z,0
2016-06-17T00:32:49.933Z,0
2016-06-17T00:33:49.561Z,0
2016-06-17T00:34:49.769Z,0
2016-06-17T00:35:49.772Z,0
2016-06-17T00:36:49.807Z,0
2016-06-17T00:37:49.591Z,0
2016-06-17T00:38:49.970Z,0
2016-06-17T00:39:49.786Z,0
2016-06-17T00:41:04.105Z,0
2016-06-17T00:41:49.839Z,0
2016-06-17T00:42:49.843Z,0
2016-06-17T00:43:50.096Z,0
2016-06-17T00:45:03.931Z,0
2016-06-17T00:45:49.696Z,0
2016-06-17T00:46:49.747Z,0
2016-06-17T00:47:49.970Z,0
2016-06-17T00:48:49.863Z,0
2016-06-17T00:50:03.979Z,0
2016-06-17T00:50:49.932Z,0
2016-06-17T00:51:49.966Z,0
2016-06-17T00:52:50.204Z,0
2016-06-17T00:53:49.972Z,0
2016-06-17T00:55:49.838Z,0
2016-06-17T00:57:04.266Z,0
2016-06-17T00:58:04.238Z,0
2016-06-17T00:59:04.242Z,0
2016-06-17T00:59:50.023Z,0
2016-06-17T01:01:04.670Z,0
2016-06-17T01:02:50.018Z,0
2016-06-17T01:04:04.102Z,0
2016-06-17T01:04:49.524Z,0
2016-06-17T01:05:50.231Z,0
2016-06-17T01:06:49.579Z,0
2016-06-17T01:07:49.910Z,0
2016-06-17T01:08:50.101Z,0
2016-06-17T01:09:50.120Z,0
2016-06-17T01:11:04.549Z,0
2016-06-17T01:11:50.486Z,0
2016-06-17T01:12:49.942Z,0
2016-06-17T01:13:49.664Z,0
2016-06-17T01:14:49.981Z,0
2016-06-17T01:15:50.375Z,0
2016-06-17T01:16:50.113Z,0
2016-06-17T01:18:04.213Z,0
2016-06-17T01:18:50.338Z,0
2016-06-17T01:19:50.170Z,0
2016-06-17T01:20:50.142Z,0
2016-06-17T01:21:50.224Z,0
2016-06-17T01:22:50.398Z,0
2016-06-17T01:23:50.450Z,0
2016-06-17T01:24:50.577Z,0
2016-06-17T01:25:50.206Z,0
2016-06-17T01:26:50.210Z,0
2016-06-17T01:27:50.229Z,0
2016-06-17T01:28:50.263Z,0
2016-06-17T01:29:50.283Z,0
2016-06-17T01:30:50.473Z,0
2016-06-17T01:32:04.200Z,0
2016-06-17T01:32:50.684Z,0
2016-06-17T01:33:50.311Z,0
2016-06-17T01:34:50.331Z,0
2016-06-17T01:35:50.476Z,0
2016-06-17T01:37:50.311Z,0
2016-06-17T01:38:50.330Z,0
2016-06-17T01:39:50.348Z,0
2016-06-17T01:40:50.336Z,0
2016-06-17T01:41:50.965Z,0
2016-06-17T01:42:50.578Z,0
2016-06-17T01:43:50.675Z,0
2016-06-17T01:44:50.382Z,0
2016-06-17T01:45:50.447Z,0
2016-06-17T01:46:50.482Z,0
2016-06-17T01:47:50.705Z,0
2016-06-17T01:48:50.441Z,0
2016-06-17T01:49:50.274Z,0
2016-06-17T01:50:50.278Z,0
2016-06-17T01:51:50.577Z,0
2016-06-17T01:52:50.722Z,0
2016-06-17T01:53:50.522Z,0
2016-06-17T01:55:04.560Z,0
2016-06-17T01:56:05.004Z,0
2016-06-17T01:56:51.207Z,0
2016-06-17T01:57:50.977Z,0
2016-06-17T01:58:50.372Z,0
2016-06-17T01:59:50.361Z,0
2016-06-17T02:00:50.788Z,0
2016-06-17T02:01:50.995Z,0
2016-06-17T02:02:50.656Z,0
2016-06-17T02:04:51.053Z,0
2016-06-17T02:06:04.667Z,0
2016-06-17T02:06:50.874Z,0
2016-06-17T02:07:51.034Z,0
2016-06-17T02:08:50.601Z,0
2016-06-17T02:09:50.650Z,0
2016-06-17T02:10:50.826Z,0
2016-06-17T02:11:50.830Z,0
2016-06-17T02:12:50.709Z,0
2016-06-17T02:14:50.653Z,0
2016-06-17T02:15:50.875Z,0
2016-06-17T02:16:50.488Z,0
2016-06-17T02:17:50.679Z,0
2016-06-17T02:18:51.167Z,0
2016-06-17T02:20:50.283Z,0
2016-06-17T02:21:50.803Z,0
2016-06-17T02:22:50.789Z,0
2016-06-17T02:23:50.481Z,0
2016-06-17T02:24:50.782Z,4
2016-06-17T02:25:51.628Z,4
2016-06-17T02:26:50.554Z,0
2016-06-17T02:28:50.810Z,0
2016-06-17T02:30:50.506Z,4
2016-06-17T02:31:50.602Z,0
2016-06-17T02:32:51.216Z,4
2016-06-17T02:33:50.827Z,8
2016-06-17T02:35:50.710Z,4
2016-06-17T02:36:50.886Z,8
2016-06-17T02:37:51.497Z,8
2016-06-17T02:38:50.892Z,8
2016-06-17T02:39:50.880Z,12
2016-06-17T02:40:50.712Z,8
2016-06-17T02:42:04.684Z,12
2016-06-17T02:42:50.937Z,20
2016-06-17T02:43:50.972Z,20
2016-06-17T02:44:51.132Z,28
2016-06-17T02:46:05.401Z,40
2016-06-17T02:47:05.029Z,40
2016-06-17T02:48:05.220Z,40
2016-06-17T02:49:05.005Z,36
2016-06-17T02:49:50.946Z,32
2016-06-17T02:51:05.059Z,32
2016-06-17T02:51:50.953Z,32
2016-06-17T02:52:50.815Z,28
2016-06-17T02:53:51.038Z,28
2016-06-17T02:54:50.995Z,28
2016-06-17T02:55:51.873Z,32
2016-06-17T02:56:51.485Z,36
2016-06-17T02:58:51.102Z,28
2016-06-17T02:59:50.934Z,24
2016-06-17T03:00:51.031Z,24
2016-06-17T03:01:51.222Z,20
2016-06-17T03:02:51.256Z,20
2016-06-17T03:03:51.135Z,20
2016-06-17T03:04:50.935Z,24
2016-06-17T03:05:51.439Z,16
2016-06-17T03:06:51.505Z,16
2016-06-17T03:07:51.086Z,16
2016-06-17T03:08:50.621Z,24
2016-06-17T03:10:05.233Z,20
2016-06-17T03:10:51.097Z,24
2016-06-17T03:11:51.365Z,24
2016-06-17T03:13:51.185Z,20
2016-06-17T03:14:50.939Z,24
2016-06-17T03:15:50.895Z,24
2016-06-17T03:16:51.165Z,28
2016-06-17T03:17:51.183Z,36
2016-06-17T03:20:05.097Z,40
2016-06-17T03:20:51.225Z,48
2016-06-17T03:21:50.713Z,56
2016-06-17T03:22:50.670Z,60
2016-06-17T03:23:51.689Z,72
2016-06-17T03:24:51.114Z,84
2016-06-17T03:25:51.696Z,84
2016-06-17T03:27:05.527Z,72
2016-06-17T03:28:05.750Z,64
2016-06-17T03:28:51.268Z,64
2016-06-17T03:29:52.132Z,72
2016-06-17T03:30:51.369Z,76
2016-06-17T03:31:51.919Z,80
2016-06-17T03:32:51.501Z,96
2016-06-17T03:33:51.316Z,112
2016-06-17T03:34:51.335Z,128
2016-06-17T03:35:51.528Z,136
2016-06-17T03:37:08.643Z,132
2016-06-17T03:37:50.893Z,132
2016-06-17T03:38:51.538Z,124
2016-06-17T03:39:51.588Z,120
2016-06-17T03:40:51.762Z,108
2016-06-17T03:41:51.657Z,104
2016-06-17T03:43:51.133Z,104
2016-06-17T03:44:51.449Z,100
2016-06-17T03:45:51.843Z,104
2016-06-17T03:46:51.456Z,120
2016-06-17T03:47:51.287Z,116
2016-06-17T03:48:51.823Z,132
2016-06-17T03:49:51.278Z,156
2016-06-17T03:50:50.985Z,188
2016-06-17T03:51:51.817Z,208
2016-06-17T03:52:51.679Z,256
2016-06-17T03:53:51.511Z,232
2016-06-17T03:54:51.280Z,196
2016-06-17T03:55:50.986Z,204
2016-06-17T03:57:05.756Z,176
2016-06-17T03:57:51.697Z,148
2016-06-17T03:59:05.575Z,132
2016-06-17T03:59:51.516Z,124
2016-06-17T04:00:51.723Z,160
2016-06-17T04:01:51.757Z,172
2016-06-17T04:02:51.558Z,164
2016-06-17T04:03:51.514Z,184
2016-06-17T04:04:51.970Z,172
2016-06-17T04:05:51.834Z,160
2016-06-17T04:06:51.619Z,152
2016-06-17T04:07:51.809Z,184
2016-06-17T04:09:06.047Z,204
2016-06-17T04:09:51.441Z,252
2016-06-17T04:10:51.804Z,252
2016-06-17T04:11:51.808Z,240
2016-06-17T04:12:51.454Z,184
2016-06-17T04:15:19.632Z,192
2016-06-17T04:15:51.475Z,200
2016-06-17T04:16:51.528Z,284
2016-06-17T04:17:51.675Z,292
2016-06-17T04:18:51.679Z,300
2016-06-17T04:20:51.891Z,316
2016-06-17T04:21:51.912Z,320
2016-06-17T04:22:51.745Z,244
2016-06-17T04:23:55.138Z,220
2016-06-17T04:25:51.725Z,184
2016-06-17T04:27:05.681Z,216
2016-06-17T04:28:05.700Z,240
2016-06-17T04:28:51.954Z,268
2016-06-17T04:30:05.818Z,296
2016-06-17T04:30:52.212Z,320
2016-06-17T04:31:51.965Z,396
2016-06-17T04:32:52.158Z,460
2016-06-17T04:33:50.675Z,492
2016-06-17T04:34:51.773Z,528
2016-06-17T04:36:06.058Z,584
2016-06-17T04:36:51.609Z,684
2016-06-17T04:37:51.799Z,668
2016-06-17T04:38:52.037Z,648
2016-06-17T04:39:52.025Z,508
2016-06-17T04:40:51.810Z,416
2016-06-17T04:42:06.095Z,304
2016-06-17T04:42:51.675Z,272
2016-06-17T04:43:52.289Z,212
2016-06-17T04:44:51.838Z,164
2016-06-17T04:45:51.687Z,140
2016-06-17T04:46:51.909Z,124
2016-06-17T04:47:52.335Z,140
2016-06-17T04:48:51.899Z,188
2016-06-17T04:49:51.872Z,272
2016-06-17T04:50:52.016Z,344
2016-06-17T04:51:51.895Z,296
2016-06-17T04:52:51.992Z,276
2016-06-17T04:53:51.949Z,320
2016-06-17T04:55:05.967Z,328
2016-06-17T04:55:52.159Z,352
2016-06-17T04:56:52.163Z,368
2016-06-17T04:57:51.759Z,324
2016-06-17T04:58:51.935Z,244
2016-06-17T04:59:52.156Z,216
2016-06-17T05:00:51.801Z,192
2016-06-17T05:01:52.164Z,204
2016-06-17T05:03:51.999Z,272
2016-06-17T05:04:52.424Z,304
2016-06-17T05:06:51.837Z,408
2016-06-17T05:07:52.029Z,484
2016-06-17T05:08:52.251Z,396
2016-06-17T05:11:52.073Z,400
2016-06-17T05:13:06.561Z,404
2016-06-17T05:13:52.080Z,396
2016-06-17T05:14:52.084Z,376
2016-06-17T05:15:52.103Z,376
2016-06-17T05:16:52.106Z,484
2016-06-17T05:17:52.516Z,444
2016-06-17T05:18:51.863Z,332
2016-06-17T05:19:52.320Z,412
2016-06-17T05:20:51.949Z,400
2016-06-17T05:21:52.107Z,508
2016-06-17T05:22:52.345Z,488
2016-06-17T05:23:51.505Z,548
2016-06-17T05:24:52.571Z,620
2016-06-17T05:25:52.372Z,572
2016-06-17T05:26:52.172Z,512
2016-06-17T05:27:52.332Z,424
2016-06-17T05:28:52.351Z,404
2016-06-17T05:30:52.358Z,316
2016-06-17T05:31:52.377Z,364
2016-06-17T05:33:06.130Z,544
2016-06-17T05:33:51.868Z,584
2016-06-17T05:35:05.966Z,668
2016-06-17T05:35:52.094Z,636
2016-06-17T05:36:53.051Z,588
2016-06-17T05:37:52.226Z,648
2016-06-17T05:38:52.261Z,584
2016-06-17T05:39:52.295Z,476
2016-06-17T05:40:52.642Z,512
2016-06-17T05:41:52.458Z,448
2016-06-17T05:42:52.696Z,448
2016-06-17T05:43:52.715Z,460
2016-06-17T05:45:52.332Z,548
2016-06-17T05:47:52.495Z,596
2016-06-17T05:48:52.139Z,484
2016-06-17T05:49:52.346Z,372
2016-06-17T05:50:52.130Z,272
2016-06-17T05:52:06.586Z,292
2016-06-17T05:52:52.965Z,312
2016-06-17T05:54:06.624Z,272
2016-06-17T05:54:52.550Z,296
2016-06-17T05:55:52.553Z,328
2016-06-17T05:57:06.620Z,328
2016-06-17T05:57:52.216Z,300
2016-06-17T05:58:52.391Z,304
2016-06-17T05:59:52.584Z,264
2016-06-17T06:00:52.586Z,232
2016-06-17T06:01:52.449Z,232
2016-06-17T06:03:06.672Z,264
2016-06-17T06:03:52.612Z,240
2016-06-17T06:04:52.272Z,236
2016-06-17T06:05:52.743Z,236
2016-06-17T06:06:52.841Z,244
2016-06-17T06:07:52.705Z,252
2016-06-17T06:08:52.521Z,228
2016-06-17T06:09:52.476Z,216
2016-06-17T06:10:52.715Z,220
2016-06-17T06:11:52.499Z,236
2016-06-17T06:12:52.534Z,216
2016-06-17T06:13:52.726Z,220
2016-06-17T06:14:52.760Z,252
2016-06-17T06:15:52.528Z,236
2016-06-17T06:16:52.736Z,236
2016-06-17T06:17:52.520Z,208
2016-06-17T06:18:52.821Z,204
2016-06-17T06:19:52.528Z,212
2016-06-17T06:20:53.592Z,296
2016-06-17T06:21:52.832Z,400
2016-06-17T06:22:53.131Z,480
2016-06-17T06:23:52.760Z,680
2016-06-17T06:24:53.185Z,612
2016-06-17T06:25:52.813Z,908
2016-06-17T06:26:52.411Z,1364
2016-06-17T06:27:52.508Z,1680
2016-06-17T06:28:52.840Z,2064
2016-06-17T06:29:52.457Z,2196
2016-06-17T06:30:52.873Z,2152
2016-06-17T06:31:52.849Z,2104
2016-06-17T06:32:52.655Z,1824
2016-06-17T06:33:53.054Z,1544
2016-06-17T06:35:07.356Z,1760
2016-06-17T06:35:53.345Z,1836
2016-06-17T06:36:53.538Z,1780
2016-06-17T06:37:52.995Z,1256
2016-06-17T06:39:06.970Z,912
2016-06-17T06:39:53.364Z,1052
2016-06-17T06:40:52.510Z,980
2016-06-17T06:42:52.643Z,1548
2016-06-17T06:43:52.756Z,2052
2016-06-17T06:44:53.634Z,2416
2016-06-17T06:45:52.888Z,2668
2016-06-17T06:46:52.985Z,2936
2016-06-17T06:47:52.489Z,3116
2016-06-17T06:48:53.211Z,3200
2016-06-17T06:49:52.667Z,2960
2016-06-17T06:50:53.249Z,2564
2016-06-17T06:51:53.455Z,2664
2016-06-17T06:52:53.053Z,3000
2016-06-17T06:53:52.885Z,3420
2016-06-17T06:54:53.060Z,3480
2016-06-17T06:55:53.267Z,3112
2016-06-17T06:56:53.456Z,2692
2016-06-17T06:57:53.070Z,2404
2016-06-17T06:58:52.949Z,2168
2016-06-17T07:00:07.467Z,1976
2016-06-17T07:00:52.909Z,1896
2016-06-17T07:01:52.771Z,1852
2016-06-17T07:02:52.884Z,1864
2016-06-17T07:03:53.121Z,1832
2016-06-17T07:04:52.859Z,1772
2016-06-17T07:05:53.004Z,1764
2016-06-17T07:06:52.586Z,1872
2016-06-17T07:07:52.932Z,2012
2016-06-17T07:09:07.436Z,2204
2016-06-17T07:10:07.033Z,2336
2016-06-17T07:10:53.209Z,2464
2016-06-17T07:11:53.416Z,2796
2016-06-17T07:12:52.981Z,3216
2016-06-17T07:13:53.220Z,3540
2016-06-17T07:15:53.382Z,3712
2016-06-17T07:17:06.761Z,3412
2016-06-17T07:18:53.236Z,3036
2016-06-17T07:20:06.850Z,2872
2016-06-17T07:20:53.243Z,2948
2016-06-17T07:21:53.434Z,3588
2016-06-17T07:22:52.079Z,4496
2016-06-17T07:23:53.051Z,5532
2016-06-17T07:25:53.511Z,5404
2016-06-17T07:26:53.482Z,5052
2016-06-17T07:27:53.080Z,4708
2016-06-17T07:28:53.318Z,4476
2016-06-17T07:30:07.445Z,4076
2016-06-17T07:31:53.140Z,2828
2016-06-17T07:32:53.331Z,2788
2016-06-17T07:33:53.726Z,2904
2016-06-17T07:34:53.371Z,2920
2016-06-17T07:35:53.374Z,3164
2016-06-17T07:36:53.361Z,3496
2016-06-17T07:37:53.348Z,3684
2016-06-17T07:38:53.384Z,3852
2016-06-17T07:39:53.199Z,4048
2016-06-17T07:40:53.594Z,4396
2016-06-17T07:41:53.020Z,4800
2016-06-17T07:42:53.240Z,4928
2016-06-17T07:43:53.073Z,4624
2016-06-17T07:44:53.233Z,4192
2016-06-17T07:45:53.205Z,4028
2016-06-17T07:48:07.493Z,4296
2016-06-17T07:48:53.075Z,4384
2016-06-17T07:50:53.472Z,4516
2016-06-17T07:52:53.667Z,4156
2016-06-17T07:53:53.326Z,4232
2016-06-17T07:54:53.564Z,4648
2016-06-17T07:55:53.521Z,5076
2016-06-17T07:56:53.336Z,5160
2016-06-17T07:57:53.825Z,5236
2016-06-17T07:58:53.515Z,5176
2016-06-17T07:59:53.410Z,5076
2016-06-17T08:05:01.943Z,6304
2016-06-17T08:06:00.697Z,6880
2016-06-17T08:07:01.716Z,7176
2016-06-17T08:09:00.895Z,6192
2016-06-17T08:10:00.038Z,5672
2016-06-17T08:11:00.714Z,5488
2016-06-17T08:12:01.343Z,5484
2016-06-17T08:13:00.079Z,5552
2016-06-17T08:14:01.365Z,5500
2016-06-17T08:15:01.571Z,5344
2016-06-17T08:16:00.997Z,5152
2016-06-17T08:18:00.113Z,5636
2016-06-17T08:19:01.601Z,5876
2016-06-17T08:20:00.339Z,6048
2016-06-17T08:21:15.592Z,6396
2016-06-17T08:22:02.283Z,6532
2016-06-17T08:23:01.224Z,6672
2016-06-17T08:24:03.775Z,6632
2016-06-17T08:25:01.699Z,6632
2016-06-17T08:26:15.641Z,6484
2016-06-17T08:27:00.863Z,6360
2016-06-17T08:28:16.304Z,6088
2016-06-17T08:29:01.292Z,5992
2016-06-17T08:30:01.733Z,5952
2016-06-17T08:31:02.392Z,5920
2016-06-17T08:32:00.896Z,5904
2016-06-17T08:33:15.900Z,5716
2016-06-17T08:34:16.560Z,5520
2016-06-17T08:35:00.282Z,5376
2016-06-17T08:36:01.941Z,5200
2016-06-17T08:37:01.945Z,4876
2016-06-17T08:38:01.777Z,4616
2016-06-17T08:39:01.233Z,4560
2016-06-17T08:40:00.956Z,4484
2016-06-17T08:41:01.615Z,4388
2016-06-17T08:42:01.587Z,4232
2016-06-17T08:43:00.981Z,4096
2016-06-17T08:44:01.875Z,3988
2016-06-17T08:44:30.062Z,2404
